createdAt,value
2018-09-04T00:00:45.347Z,74.50
2018-09-04T00:03:12.679Z,75.40
2018-09-04T00:05:40.085Z,76.10
2018-09-04T00:08:07.585Z,76.50
2018-09-04T00:10:35.063Z,77.10
2018-09-04T00:13:02.532Z,76.80
2018-09-04T00:15:30.017Z,75.90
2018-09-04T00:17:57.503Z,75.10
2018-09-04T00:20:24.964Z,74.50
2018-09-04T00:22:52.317Z,73.90
2018-09-04T00:25:19.725Z,73.60
2018-09-04T00:27:47.131Z,73.20
2018-09-04T00:30:14.634Z,73.20
2018-09-04T00:32:42.102Z,73.00
2018-09-04T00:35:09.544Z,73.10
2018-09-04T00:37:36.992Z,73.30
2018-09-04T00:40:05.523Z,73.60
2018-09-04T00:42:33.010Z,73.90
2018-09-04T00:45:00.521Z,73.80
2018-09-04T00:47:27.896Z,73.90
2018-09-04T00:49:55.397Z,74.00
2018-09-04T00:52:22.900Z,73.70
2018-09-04T00:54:50.464Z,73.60
2018-09-04T00:57:17.923Z,73.50
2018-09-04T00:59:45.288Z,73.60
2018-09-04T01:02:12.723Z,74.10
2018-09-04T01:04:40.187Z,74.30
2018-09-04T01:07:07.562Z,74.30
2018-09-04T01:09:35.197Z,74.60
2018-09-04T01:12:02.678Z,74.70
2018-09-04T01:14:30.147Z,74.90
2018-09-04T01:16:57.632Z,75.10
2018-09-04T01:19:25.012Z,75.40
2018-09-04T01:21:52.390Z,75.00
2018-09-04T01:24:19.923Z,74.30
2018-09-04T01:26:47.385Z,74.20
2018-09-04T01:29:14.830Z,74.10
2018-09-04T01:31:42.263Z,73.60
2018-09-04T01:34:09.697Z,74.30
2018-09-04T01:36:37.142Z,74.90
2018-09-04T01:39:05.930Z,73.90
2018-09-04T01:41:33.283Z,73.30
2018-09-04T01:44:00.803Z,73.10
2018-09-04T01:46:28.212Z,73.20
2018-09-04T01:48:55.623Z,73.50
2018-09-04T01:51:23.089Z,73.60
2018-09-04T01:53:50.582Z,73.70
2018-09-04T01:56:18.101Z,74.40
2018-09-04T01:58:45.604Z,74.50
2018-09-04T02:01:13.064Z,75.10
2018-09-04T02:03:40.442Z,75.40
2018-09-04T02:06:07.821Z,75.60
2018-09-04T02:08:35.214Z,75.50
2018-09-04T02:11:02.653Z,75.50
2018-09-04T02:13:30.050Z,75.30
2018-09-04T02:15:57.488Z,75.00
2018-09-04T02:18:25.034Z,74.90
2018-09-04T02:20:52.504Z,74.80
2018-09-04T02:23:19.863Z,74.40
2018-09-04T02:25:47.253Z,74.60
2018-09-04T02:28:14.686Z,74.10
2018-09-04T02:30:42.170Z,74.20
2018-09-04T02:33:09.693Z,74.10
2018-09-04T02:35:36.971Z,74.50
2018-09-04T02:38:05.149Z,75.00
2018-09-04T02:40:32.516Z,74.90
2018-09-04T02:43:00.012Z,74.70
2018-09-04T02:45:27.393Z,75.20
2018-09-04T02:47:54.868Z,76.20
2018-09-04T02:50:22.272Z,75.80
2018-09-04T02:52:49.667Z,76.10
2018-09-04T02:55:17.022Z,76.40
2018-09-04T02:57:44.534Z,76.30
2018-09-04T03:00:11.987Z,75.80
2018-09-04T03:02:39.380Z,76.10
2018-09-04T03:05:06.780Z,76.50
2018-09-04T03:07:34.286Z,76.20
2018-09-04T03:10:01.672Z,76.00
2018-09-04T03:12:29.146Z,75.60
2018-09-04T03:14:56.555Z,75.20
2018-09-04T03:17:23.967Z,74.60
2018-09-04T03:19:51.384Z,74.50
2018-09-04T03:22:18.825Z,74.80
2018-09-04T03:24:46.273Z,74.90
2018-09-04T03:27:13.749Z,75.60
2018-09-04T03:29:41.240Z,76.10
2018-09-04T03:32:08.629Z,75.70
2018-09-04T03:34:36.184Z,76.20
2018-09-04T03:37:03.791Z,75.50
2018-09-04T03:39:31.227Z,75.80
2018-09-04T03:41:58.716Z,74.90
2018-09-04T03:44:26.270Z,74.50
2018-09-04T03:46:53.659Z,74.30
2018-09-04T03:49:21.127Z,74.40
2018-09-04T03:51:48.568Z,74.20
2018-09-04T03:54:16.015Z,74.10
2018-09-04T03:56:43.450Z,74.50
2018-09-04T03:59:10.868Z,75.30
2018-09-04T04:01:38.361Z,74.60
2018-09-04T04:04:05.755Z,74.80
2018-09-04T04:06:33.162Z,75.30
2018-09-04T04:09:00.619Z,75.50
2018-09-04T04:11:28.044Z,75.70
2018-09-04T04:13:55.531Z,76.20
2018-09-04T04:16:22.971Z,77.10
2018-09-04T04:18:50.488Z,77.40
2018-09-04T04:21:17.918Z,77.00
2018-09-04T04:23:45.293Z,77.20
2018-09-04T04:26:12.788Z,77.00
2018-09-04T04:28:40.368Z,77.10
2018-09-04T04:31:07.870Z,77.10
2018-09-04T04:33:35.313Z,77.60
2018-09-04T04:36:02.860Z,76.90
2018-09-04T04:38:30.252Z,77.10
2018-09-04T04:40:57.666Z,76.90
2018-09-04T04:43:25.144Z,76.90
2018-09-04T04:45:52.620Z,76.80
2018-09-04T04:48:20.069Z,76.90
2018-09-04T04:50:47.448Z,77.20
2018-09-04T04:53:14.893Z,78.20
2018-09-04T04:55:42.294Z,78.40
2018-09-04T04:58:09.675Z,78.50
2018-09-04T05:00:37.075Z,78.50
2018-09-04T05:03:04.660Z,78.30
2018-09-04T05:05:32.094Z,78.00
2018-09-04T05:07:59.589Z,78.10
2018-09-04T05:10:27.042Z,78.40
2018-09-04T05:12:54.480Z,77.50
2018-09-04T05:15:21.910Z,78.40
2018-09-04T05:17:49.314Z,78.80
2018-09-04T05:20:23.696Z,78.60
2018-09-04T05:22:51.169Z,78.30
2018-09-04T05:25:18.608Z,78.20
2018-09-04T05:27:46.059Z,78.00
2018-09-04T05:30:13.541Z,79.40
2018-09-04T05:32:44.652Z,79.00
2018-09-04T05:35:13.333Z,79.00
2018-09-04T05:37:42.582Z,78.50
2018-09-04T05:40:10.167Z,78.30
2018-09-04T05:42:42.271Z,78.30
2018-09-04T05:45:09.747Z,80.40
2018-09-04T05:47:38.728Z,80.70
2018-09-04T05:50:07.315Z,80.30
2018-09-04T05:52:35.217Z,82.40
2018-09-04T05:55:02.705Z,83.20
2018-09-04T05:57:30.128Z,83.90
2018-09-04T05:59:57.632Z,84.00
2018-09-04T06:02:25.200Z,84.40
2018-09-04T06:04:52.588Z,84.80
2018-09-04T06:07:19.980Z,85.10
2018-09-04T06:09:47.427Z,86.60
2018-09-04T06:12:14.907Z,86.40
2018-09-04T06:14:42.384Z,86.50
2018-09-04T06:17:09.920Z,86.80
2018-09-04T06:19:37.405Z,86.40
2018-09-04T06:22:04.984Z,86.70
2018-09-04T06:24:32.445Z,87.30
2018-09-04T06:26:59.971Z,86.90
2018-09-04T06:29:27.428Z,87.10
2018-09-04T06:31:54.845Z,86.00
2018-09-04T06:34:22.252Z,85.50
2018-09-04T06:36:49.824Z,86.00
2018-09-04T06:39:17.184Z,85.40
2018-09-04T06:41:44.707Z,86.30
2018-09-04T06:44:12.131Z,86.30
2018-09-04T06:46:39.602Z,86.70
2018-09-04T06:49:06.910Z,86.40
2018-09-04T06:51:34.258Z,86.30
2018-09-04T06:54:01.672Z,86.00
2018-09-04T06:56:29.112Z,85.40
2018-09-04T06:58:56.565Z,85.50
2018-09-04T07:01:24.117Z,85.00
2018-09-04T07:03:51.603Z,86.20
2018-09-04T07:06:19.028Z,86.30
2018-09-04T07:08:46.648Z,86.20
2018-09-04T07:11:14.056Z,87.40
2018-09-04T07:13:41.500Z,86.40
2018-09-04T07:16:08.942Z,87.10
2018-09-04T07:18:36.338Z,86.40
2018-09-04T07:21:03.937Z,85.90
2018-09-04T07:23:31.451Z,86.50
2018-09-04T07:25:58.990Z,86.10
2018-09-04T07:28:26.359Z,85.90
2018-09-04T07:30:53.828Z,86.50
2018-09-04T07:33:21.291Z,85.40
2018-09-04T07:35:48.821Z,85.90
2018-09-04T07:38:16.293Z,86.30
2018-09-04T07:40:43.705Z,84.30
2018-09-04T07:43:11.157Z,83.50
2018-09-04T07:45:38.608Z,83.60
2018-09-04T07:48:06.085Z,82.20
2018-09-04T07:50:33.520Z,81.20
2018-09-04T07:53:00.932Z,80.40
2018-09-04T07:55:28.439Z,79.50
2018-09-04T07:57:55.942Z,79.60
2018-09-04T08:00:23.519Z,78.90
2018-09-04T08:02:51.100Z,79.40
2018-09-04T08:05:18.592Z,79.60
2018-09-04T08:07:46.086Z,79.10
2018-09-04T08:10:13.526Z,79.00
2018-09-04T08:12:41.062Z,79.80
2018-09-04T08:15:08.553Z,77.70
2018-09-04T08:17:36.055Z,76.60
2018-09-04T08:20:05.921Z,76.80
2018-09-04T08:22:34.572Z,74.80
2018-09-04T08:25:02.030Z,74.50
2018-09-04T08:27:29.461Z,73.90
2018-09-04T08:29:56.937Z,72.70
2018-09-04T08:32:24.360Z,73.70
2018-09-04T08:34:51.798Z,74.50
2018-09-04T08:37:19.239Z,73.80
2018-09-04T08:39:48.456Z,71.30
2018-09-04T08:42:23.520Z,70.90
2018-09-04T08:44:51.082Z,71.90
2018-09-04T08:47:19.119Z,75.60
2018-09-04T08:49:46.674Z,74.20
2018-09-04T08:52:14.051Z,73.20
2018-09-04T08:54:41.544Z,69.60
2018-09-04T08:57:09.091Z,69.00
2018-09-04T08:59:37.633Z,71.30
2018-09-04T09:02:05.136Z,68.90
2018-09-04T09:04:32.550Z,69.90
2018-09-04T09:07:00.134Z,68.90
2018-09-04T09:09:27.535Z,69.10
2018-09-04T09:11:54.938Z,69.00
2018-09-04T09:14:22.295Z,68.40
2018-09-04T09:16:49.846Z,70.10
2018-09-04T09:19:17.253Z,69.10
2018-09-04T09:21:44.741Z,68.70
2018-09-04T09:24:12.223Z,69.00
2018-09-04T09:26:39.660Z,69.20
2018-09-04T09:29:07.097Z,68.00
2018-09-04T09:31:34.647Z,70.50
2018-09-04T09:34:02.030Z,67.40
2018-09-04T09:36:29.512Z,71.30
2018-09-04T09:38:56.891Z,67.70
2018-09-04T09:41:24.393Z,67.70
2018-09-04T09:43:51.850Z,66.50
2018-09-04T09:46:19.271Z,66.10
2018-09-04T09:48:46.818Z,65.70
2018-09-04T09:51:14.397Z,65.60
2018-09-04T09:53:42.005Z,66.10
2018-09-04T09:56:10.368Z,67.30
2018-09-04T09:58:38.214Z,66.80
2018-09-04T10:01:11.480Z,65.50
2018-09-04T10:03:48.586Z,65.50
2018-09-04T10:06:17.232Z,65.30
2018-09-04T10:08:44.819Z,63.90
2018-09-04T10:11:12.422Z,67.50
2018-09-04T10:13:39.708Z,64.90
2018-09-04T10:16:07.198Z,66.50
2018-09-04T10:18:34.608Z,63.60
2018-09-04T10:21:02.140Z,64.00
2018-09-04T10:23:29.629Z,64.10
2018-09-04T10:25:57.194Z,65.40
2018-09-04T10:28:24.747Z,62.30
2018-09-04T10:30:52.148Z,62.30
2018-09-04T10:33:19.617Z,61.70
2018-09-04T10:35:47.124Z,64.30
2018-09-04T10:38:14.572Z,61.70
2018-09-04T10:40:43.892Z,59.80
2018-09-04T10:43:11.432Z,60.80
2018-09-04T10:46:22.736Z,60.30
2018-09-04T10:48:50.213Z,60.00
2018-09-04T10:51:17.674Z,59.00
2018-09-04T10:53:45.195Z,59.30
2018-09-04T10:56:12.652Z,58.20
2018-09-04T10:58:40.127Z,57.50
2018-09-04T11:01:07.562Z,58.10
2018-09-04T11:03:34.998Z,58.50
2018-09-04T11:06:02.474Z,57.40
2018-09-04T11:08:29.931Z,58.30
2018-09-04T11:10:57.477Z,56.90
2018-09-04T11:13:24.933Z,55.80
2018-09-04T11:15:53.412Z,58.10
2018-09-04T11:18:20.927Z,56.60
2018-09-04T11:20:48.371Z,55.50
2018-09-04T11:23:15.773Z,55.70
2018-09-04T11:25:43.205Z,56.30
2018-09-04T11:28:10.713Z,58.70
2018-09-04T11:30:38.291Z,59.10
2018-09-04T11:33:05.671Z,53.30
2018-09-04T11:35:33.155Z,55.00
2018-09-04T11:38:00.575Z,56.10
2018-09-04T11:40:28.133Z,55.70
2018-09-04T11:42:55.603Z,54.60
2018-09-04T11:45:23.187Z,53.90
2018-09-04T11:47:50.646Z,55.30
2018-09-04T11:50:18.020Z,54.60
2018-09-04T11:52:45.493Z,54.00
2018-09-04T11:55:12.961Z,53.40
2018-09-04T11:57:40.760Z,54.20
2018-09-04T12:00:10.551Z,55.40
2018-09-04T12:02:39.184Z,59.00
2018-09-04T12:05:06.603Z,54.20
2018-09-04T12:07:34.032Z,52.50
2018-09-04T12:10:01.499Z,52.30
2018-09-04T12:12:30.271Z,52.30
2018-09-04T12:14:57.661Z,52.60
2018-09-04T12:17:25.275Z,50.50
2018-09-04T12:20:46.287Z,50.40
2018-09-04T12:23:13.759Z,51.40
2018-09-04T12:25:41.815Z,50.60
2018-09-04T12:28:09.334Z,50.60
2018-09-04T12:30:36.799Z,50.60
2018-09-04T12:33:04.388Z,52.10
2018-09-04T12:35:32.880Z,51.80
2018-09-04T12:38:00.556Z,52.30
2018-09-04T12:40:28.040Z,52.00
2018-09-04T12:42:55.477Z,53.80
2018-09-04T12:45:24.331Z,52.60
2018-09-04T12:47:52.265Z,53.60
2018-09-04T12:50:19.893Z,51.20
2018-09-04T12:52:47.636Z,54.20
2018-09-04T12:55:15.111Z,51.40
2018-09-04T12:57:42.504Z,50.00
2018-09-04T13:00:10.537Z,50.60
2018-09-04T13:02:38.324Z,52.80
2018-09-04T13:05:05.826Z,51.40
2018-09-04T13:07:33.359Z,53.10
2018-09-04T13:10:00.774Z,52.40
2018-09-04T13:12:28.173Z,53.30
2018-09-04T13:14:55.652Z,49.80
2018-09-04T13:17:23.152Z,51.10
2018-09-04T13:19:50.620Z,49.20
2018-09-04T13:22:18.123Z,49.60
2018-09-04T13:24:45.512Z,49.00
2018-09-04T13:27:12.911Z,48.40
2018-09-04T13:29:40.500Z,51.10
2018-09-04T13:32:07.979Z,48.00
2018-09-04T13:34:35.411Z,49.70
2018-09-04T13:37:02.901Z,48.30
2018-09-04T13:39:30.320Z,49.30
2018-09-04T13:41:57.733Z,47.90
2018-09-04T13:44:25.229Z,47.10
2018-09-04T13:46:52.742Z,48.60
2018-09-04T13:49:20.186Z,47.00
2018-09-04T13:51:47.635Z,47.90
2018-09-04T13:54:15.047Z,48.10
2018-09-04T13:56:42.508Z,49.30
2018-09-04T13:59:09.954Z,47.20
2018-09-04T14:01:37.399Z,49.30
2018-09-04T14:04:05.016Z,46.80
2018-09-04T14:06:32.371Z,45.10
2018-09-04T14:08:59.742Z,46.30
2018-09-04T14:11:27.146Z,49.00
2018-09-04T14:13:54.601Z,49.80
2018-09-04T14:16:23.405Z,44.50
2018-09-04T14:18:50.921Z,48.90
2018-09-04T14:21:18.331Z,45.20
2018-09-04T14:23:45.757Z,43.10
2018-09-04T14:26:13.610Z,43.10
2018-09-04T14:28:41.579Z,44.20
2018-09-04T14:31:08.446Z,45.60
2018-09-04T14:33:35.800Z,46.30
2018-09-04T14:36:03.325Z,44.70
2018-09-04T14:38:30.676Z,46.10
2018-09-04T14:40:58.100Z,46.80
2018-09-04T14:43:25.503Z,46.90
2018-09-04T14:45:52.952Z,46.90
2018-09-04T14:48:20.414Z,48.10
2018-09-04T14:50:47.855Z,46.80
2018-09-04T14:53:15.319Z,47.00
2018-09-04T14:55:42.726Z,47.60
2018-09-04T14:58:10.118Z,45.30
2018-09-04T15:00:37.582Z,45.80
2018-09-04T15:03:04.843Z,46.20
2018-09-04T15:05:32.308Z,45.70
2018-09-04T15:08:00.702Z,44.70
2018-09-04T15:10:28.128Z,46.00
2018-09-04T15:12:55.560Z,43.90
2018-09-04T15:15:23.044Z,45.80
2018-09-04T15:17:50.430Z,44.60
2018-09-04T15:20:17.846Z,44.40
2018-09-04T15:22:45.306Z,43.90
2018-09-04T15:25:12.702Z,43.60
2018-09-04T15:27:40.126Z,44.40
2018-09-04T15:30:07.548Z,43.30
2018-09-04T15:32:35.111Z,47.20
2018-09-04T15:35:02.756Z,43.90
2018-09-04T15:37:30.257Z,43.40
2018-09-04T15:39:57.741Z,43.40
2018-09-04T15:42:25.566Z,43.80
2018-09-04T15:44:53.244Z,44.80
2018-09-04T15:47:21.014Z,44.50
2018-09-04T15:49:48.489Z,44.80
2018-09-04T15:52:16.642Z,44.10
2018-09-04T15:54:44.599Z,44.00
2018-09-04T15:57:12.806Z,44.30
2018-09-04T15:59:40.363Z,43.80
2018-09-04T16:02:07.831Z,43.70
2018-09-04T16:04:35.341Z,44.20
2018-09-04T16:07:02.862Z,44.40
2018-09-04T16:09:30.311Z,44.30
2018-09-04T16:11:57.777Z,44.00
2018-09-04T16:14:25.119Z,44.90
2018-09-04T16:16:52.480Z,44.40
2018-09-04T16:19:19.991Z,44.40
2018-09-04T16:21:47.530Z,47.20
2018-09-04T16:24:14.943Z,44.90
2018-09-04T16:26:42.338Z,44.30
2018-09-04T16:29:09.768Z,44.50
2018-09-04T16:31:37.265Z,44.40
2018-09-04T16:34:04.827Z,44.10
2018-09-04T16:36:32.245Z,44.50
2018-09-04T16:38:59.777Z,45.80
2018-09-04T16:41:27.228Z,45.70
2018-09-04T16:43:54.645Z,46.30
2018-09-04T16:46:22.130Z,46.20
2018-09-04T16:48:49.736Z,45.10
2018-09-04T16:51:17.215Z,46.30
2018-09-04T16:53:44.591Z,47.20
2018-09-04T16:56:12.079Z,46.50
2018-09-04T16:58:39.466Z,47.40
2018-09-04T17:01:06.875Z,47.90
2018-09-04T17:03:34.329Z,49.00
2018-09-04T17:06:01.800Z,49.00
2018-09-04T17:08:29.219Z,49.70
2018-09-04T17:10:56.760Z,50.00
2018-09-04T17:13:24.214Z,50.90
2018-09-04T17:15:51.653Z,51.40
2018-09-04T17:18:19.132Z,51.50
2018-09-04T17:20:46.600Z,51.80
2018-09-04T17:23:14.109Z,52.00
2018-09-04T17:25:41.554Z,52.30
2018-09-04T17:28:08.956Z,53.00
2018-09-04T17:30:36.477Z,52.30
2018-09-04T17:33:04.026Z,52.60
2018-09-04T17:35:31.450Z,52.80
2018-09-04T17:37:58.957Z,53.30
2018-09-04T17:40:26.542Z,53.60
2018-09-04T17:42:53.952Z,54.10
2018-09-04T17:45:21.490Z,54.40
2018-09-04T17:47:49.008Z,54.80
2018-09-04T17:50:16.524Z,55.10
2018-09-04T17:52:44.000Z,55.60
2018-09-04T17:55:11.491Z,56.20
2018-09-04T17:57:39.136Z,56.10
2018-09-04T18:00:07.148Z,56.10
2018-09-04T18:02:34.604Z,55.10
2018-09-04T18:05:02.014Z,53.90
2018-09-04T18:07:29.499Z,54.10
2018-09-04T18:09:56.996Z,54.50
2018-09-04T18:12:24.493Z,54.60
2018-09-04T18:14:52.090Z,54.70
2018-09-04T18:17:19.575Z,54.80
2018-09-04T18:19:47.212Z,54.60
2018-09-04T18:22:14.672Z,54.50
2018-09-04T18:24:42.167Z,54.20
2018-09-04T18:27:09.661Z,54.30
2018-09-04T18:29:37.156Z,54.60
2018-09-04T18:32:04.607Z,54.80
2018-09-04T18:34:32.112Z,58.10
2018-09-04T18:36:59.796Z,58.60
2018-09-04T18:39:27.183Z,59.40
2018-09-04T18:41:54.951Z,59.10
2018-09-04T18:44:22.503Z,59.10
2018-09-04T18:46:49.997Z,59.70
2018-09-04T18:49:17.519Z,59.80
2018-09-04T18:51:45.008Z,59.20
2018-09-04T18:54:12.541Z,58.70
2018-09-04T18:56:40.033Z,58.10
2018-09-04T18:59:07.624Z,57.10
2018-09-04T19:01:35.258Z,57.10
2018-09-04T19:04:02.863Z,57.70
2018-09-04T19:06:30.344Z,57.80
2018-09-04T19:08:57.782Z,58.00
2018-09-04T19:11:25.229Z,58.30
2018-09-04T19:13:52.743Z,58.60
2018-09-04T19:16:20.237Z,58.90
2018-09-04T19:18:47.658Z,57.70
2018-09-04T19:21:15.153Z,57.50
2018-09-04T19:23:42.731Z,57.90
2018-09-04T19:26:10.084Z,58.80
2018-09-04T19:28:38.602Z,59.20
2018-09-04T19:31:06.092Z,58.80
2018-09-04T19:33:33.519Z,58.80
2018-09-04T19:36:00.919Z,59.70
2018-09-04T19:38:28.268Z,60.00
2018-09-04T19:40:55.700Z,59.20
2018-09-04T19:43:23.192Z,58.90
2018-09-04T19:45:50.677Z,59.10
2018-09-04T19:48:18.244Z,59.20
2018-09-04T19:50:45.778Z,59.30
2018-09-04T19:53:13.178Z,59.90
2018-09-04T19:55:40.776Z,60.20
2018-09-04T19:58:08.297Z,59.40
2018-09-04T20:00:36.972Z,59.00
2018-09-04T20:03:04.577Z,59.40
2018-09-04T20:05:32.113Z,59.00
2018-09-04T20:07:59.651Z,59.60
2018-09-04T20:10:27.175Z,59.60
2018-09-04T20:12:54.653Z,59.70
2018-09-04T20:15:22.156Z,60.10
2018-09-04T20:17:49.646Z,60.30
2018-09-04T20:20:17.077Z,60.00
2018-09-04T20:22:44.542Z,60.30
2018-09-04T20:25:11.924Z,60.30
2018-09-04T20:27:39.348Z,60.60
2018-09-04T20:30:06.836Z,60.50
2018-09-04T20:32:34.337Z,61.00
2018-09-04T20:35:01.772Z,61.20
2018-09-04T20:37:29.261Z,61.20
2018-09-04T20:39:56.691Z,61.10
2018-09-04T20:42:24.104Z,60.60
2018-09-04T20:44:51.542Z,60.70
2018-09-04T20:47:18.910Z,61.60
2018-09-04T20:49:46.347Z,60.50
2018-09-04T20:52:13.798Z,60.80
2018-09-04T20:54:41.230Z,61.60
2018-09-04T20:57:24.740Z,61.90
2018-09-04T21:00:05.139Z,62.20
2018-09-04T21:02:44.287Z,62.20
2018-09-04T21:05:23.587Z,62.00
2018-09-04T21:08:08.352Z,62.30
2018-09-04T21:10:35.835Z,62.10
2018-09-04T21:13:03.504Z,62.40
2018-09-04T21:15:30.984Z,62.40
2018-09-04T21:17:58.660Z,62.40
2018-09-04T21:20:26.093Z,62.70
2018-09-04T21:22:53.760Z,62.60
2018-09-04T21:25:21.163Z,63.00
2018-09-04T21:27:48.585Z,63.00
2018-09-04T21:30:16.048Z,63.10
2018-09-04T21:32:43.509Z,63.40
2018-09-04T21:35:15.617Z,63.40
2018-09-04T21:37:43.241Z,63.30
2018-09-04T21:40:10.826Z,63.40
2018-09-04T21:42:38.242Z,64.20
2018-09-04T21:45:06.116Z,63.90
2018-09-04T21:48:22.433Z,63.90
2018-09-04T21:50:49.922Z,63.80
2018-09-04T21:53:17.861Z,63.70
2018-09-04T21:55:45.293Z,63.60
2018-09-04T21:58:12.767Z,63.70
2018-09-04T22:00:40.264Z,64.20
2018-09-04T22:03:08.567Z,64.20
2018-09-04T22:05:37.126Z,63.80
2018-09-04T22:08:04.661Z,64.30
2018-09-04T22:10:32.433Z,64.40
2018-09-04T22:12:59.833Z,64.40
2018-09-04T22:15:27.469Z,64.90
2018-09-04T22:17:54.932Z,65.20
2018-09-04T22:20:22.467Z,65.50
2018-09-04T22:22:49.893Z,65.80
2018-09-04T22:25:17.262Z,65.50
2018-09-04T22:27:44.670Z,65.60
2018-09-04T22:30:12.085Z,65.80
2018-09-04T22:32:39.520Z,66.00
2018-09-04T22:35:06.916Z,66.00
2018-09-04T22:37:34.419Z,66.00
2018-09-04T22:40:01.797Z,66.40
2018-09-04T22:42:29.252Z,66.00
2018-09-04T22:44:56.658Z,65.50
2018-09-04T22:47:24.183Z,65.70
2018-09-04T22:49:57.181Z,65.80
2018-09-04T22:52:28.615Z,65.90
2018-09-04T22:54:57.880Z,66.40
2018-09-04T22:57:25.342Z,66.60
2018-09-04T22:59:53.162Z,67.00
2018-09-04T23:02:20.660Z,67.30
2018-09-04T23:04:48.100Z,67.40
2018-09-04T23:07:15.836Z,66.90
2018-09-04T23:09:43.280Z,67.20
2018-09-04T23:12:10.845Z,67.60
2018-09-04T23:14:38.318Z,66.70
2018-09-04T23:17:05.757Z,66.70
2018-09-04T23:19:33.240Z,66.80
2018-09-04T23:22:00.702Z,67.40
2018-09-04T23:24:28.157Z,67.40
2018-09-04T23:26:55.611Z,67.90
2018-09-04T23:29:23.035Z,67.70
2018-09-04T23:31:50.530Z,68.40
2018-09-04T23:34:17.992Z,68.00
2018-09-04T23:36:45.389Z,67.70
2018-09-04T23:39:12.837Z,67.10
2018-09-04T23:41:40.367Z,67.60
2018-09-04T23:44:07.969Z,67.80
2018-09-04T23:46:35.421Z,67.60
2018-09-04T23:49:02.875Z,67.60
2018-09-04T23:51:30.295Z,67.90
2018-09-04T23:53:57.775Z,67.80
2018-09-04T23:56:25.246Z,68.80
2018-09-04T23:58:52.632Z,68.60
